sensor_id;sensor_type;location;lat;lon;timestamp;P1;durP1;ratioP1;P2;durP2;ratioP2
18251;SDS011;26917;52.328;20.878;2022-07-29T00:01:40;11.30;;;4.95;;
18251;SDS011;26917;52.328;20.878;2022-07-29T00:04:09;9.75;;;4.70;;
18251;SDS011;26917;52.328;20.878;2022-07-29T00:06:37;10.60;;;5.38;;
18251;SDS011;26917;52.328;20.878;2022-07-29T00:09:06;8.75;;;4.60;;
18251;SDS011;26917;52.328;20.878;2022-07-29T00:11:36;9.68;;;5.07;;
18251;SDS011;26917;52.328;20.878;2022-07-29T00:14:04;8.18;;;5.15;;
18251;SDS011;26917;52.328;20.878;2022-07-29T00:16:33;6.50;;;4.68;;
18251;SDS011;26917;52.328;20.878;2022-07-29T00:19:02;9.30;;;5.53;;
18251;SDS011;26917;52.328;20.878;2022-07-29T00:21:33;7.43;;;4.93;;
18251;SDS011;26917;52.328;20.878;2022-07-29T00:24:01;12.93;;;5.07;;
18251;SDS011;26917;52.328;20.878;2022-07-29T00:26:30;9.23;;;6.07;;
18251;SDS011;26917;52.328;20.878;2022-07-29T00:29:02;9.07;;;5.07;;
18251;SDS011;26917;52.328;20.878;2022-07-29T00:31:51;7.57;;;5.28;;
18251;SDS011;26917;52.328;20.878;2022-07-29T00:34:20;8.85;;;5.97;;
18251;SDS011;26917;52.328;20.878;2022-07-29T00:37:06;9.10;;;5.75;;
18251;SDS011;26917;52.328;20.878;2022-07-29T00:39:34;10.68;;;5.68;;
18251;SDS011;26917;52.328;20.878;2022-07-29T00:42:03;8.52;;;4.45;;
18251;SDS011;26917;52.328;20.878;2022-07-29T00:44:37;7.53;;;4.95;;
18251;SDS011;26917;52.328;20.878;2022-07-29T00:47:06;5.28;;;4.63;;
18251;SDS011;26917;52.328;20.878;2022-07-29T00:49:35;8.88;;;4.90;;
18251;SDS011;26917;52.328;20.878;2022-07-29T00:52:04;8.63;;;5.50;;
18251;SDS011;26917;52.328;20.878;2022-07-29T00:54:33;8.32;;;4.97;;
18251;SDS011;26917;52.328;20.878;2022-07-29T00:57:09;5.18;;;4.65;;
18251;SDS011;26917;52.328;20.878;2022-07-29T00:59:40;8.07;;;4.18;;
18251;SDS011;26917;52.328;20.878;2022-07-29T01:02:08;6.55;;;4.10;;
18251;SDS011;26917;52.328;20.878;2022-07-29T01:04:37;9.93;;;4.82;;
18251;SDS011;26917;52.328;20.878;2022-07-29T01:07:06;10.15;;;4.25;;
18251;SDS011;26917;52.328;20.878;2022-07-29T01:09:35;5.75;;;3.92;;
18251;SDS011;26917;52.328;20.878;2022-07-29T01:12:12;11.27;;;4.47;;
18251;SDS011;26917;52.328;20.878;2022-07-29T01:14:44;6.82;;;4.43;;
18251;SDS011;26917;52.328;20.878;2022-07-29T01:17:16;6.50;;;4.50;;
18251;SDS011;26917;52.328;20.878;2022-07-29T01:19:49;8.30;;;5.05;;
18251;SDS011;26917;52.328;20.878;2022-07-29T01:22:35;7.32;;;5.88;;
18251;SDS011;26917;52.328;20.878;2022-07-29T01:28:55;5.13;;;3.97;;
18251;SDS011;26917;52.328;20.878;2022-07-29T01:31:35;7.93;;;4.20;;
18251;SDS011;26917;52.328;20.878;2022-07-29T01:34:27;6.40;;;4.75;;
18251;SDS011;26917;52.328;20.878;2022-07-29T01:37:01;7.43;;;4.45;;
18251;SDS011;26917;52.328;20.878;2022-07-29T01:39:36;8.32;;;4.72;;
18251;SDS011;26917;52.328;20.878;2022-07-29T01:42:08;4.75;;;4.13;;
18251;SDS011;26917;52.328;20.878;2022-07-29T01:44:46;8.30;;;4.35;;
18251;SDS011;26917;52.328;20.878;2022-07-29T01:47:21;8.27;;;5.43;;
18251;SDS011;26917;52.328;20.878;2022-07-29T01:49:55;8.00;;;4.35;;
18251;SDS011;26917;52.328;20.878;2022-07-29T01:52:27;7.22;;;4.47;;
18251;SDS011;26917;52.328;20.878;2022-07-29T01:55:02;14.55;;;4.63;;
18251;SDS011;26917;52.328;20.878;2022-07-29T01:57:35;5.90;;;4.28;;
18251;SDS011;26917;52.328;20.878;2022-07-29T02:00:08;7.18;;;4.97;;
18251;SDS011;26917;52.328;20.878;2022-07-29T02:02:39;7.55;;;4.57;;
18251;SDS011;26917;52.328;20.878;2022-07-29T02:05:10;6.03;;;4.60;;
18251;SDS011;26917;52.328;20.878;2022-07-29T02:07:42;6.75;;;5.25;;
18251;SDS011;26917;52.328;20.878;2022-07-29T02:10:12;8.60;;;5.95;;
18251;SDS011;26917;52.328;20.878;2022-07-29T02:12:41;7.70;;;4.63;;
18251;SDS011;26917;52.328;20.878;2022-07-29T02:15:17;5.78;;;4.68;;
18251;SDS011;26917;52.328;20.878;2022-07-29T02:17:49;6.70;;;5.38;;
18251;SDS011;26917;52.328;20.878;2022-07-29T02:20:20;11.60;;;5.15;;
18251;SDS011;26917;52.328;20.878;2022-07-29T02:22:51;6.18;;;4.20;;
18251;SDS011;26917;52.328;20.878;2022-07-29T02:25:21;5.50;;;3.75;;
18251;SDS011;26917;52.328;20.878;2022-07-29T02:28:03;8.18;;;4.60;;
18251;SDS011;26917;52.328;20.878;2022-07-29T02:30:34;6.93;;;3.85;;
18251;SDS011;26917;52.328;20.878;2022-07-29T02:33:07;6.60;;;4.20;;
18251;SDS011;26917;52.328;20.878;2022-07-29T02:35:37;5.75;;;4.57;;
18251;SDS011;26917;52.328;20.878;2022-07-29T02:38:07;6.03;;;4.00;;
18251;SDS011;26917;52.328;20.878;2022-07-29T02:40:58;5.60;;;5.10;;
18251;SDS011;26917;52.328;20.878;2022-07-29T02:43:29;17.33;;;4.50;;
18251;SDS011;26917;52.328;20.878;2022-07-29T02:46:08;7.68;;;4.13;;
18251;SDS011;26917;52.328;20.878;2022-07-29T02:48:56;7.47;;;4.38;;
18251;SDS011;26917;52.328;20.878;2022-07-29T02:51:32;7.45;;;4.05;;
18251;SDS011;26917;52.328;20.878;2022-07-29T02:54:10;5.43;;;4.32;;
18251;SDS011;26917;52.328;20.878;2022-07-29T02:56:42;5.90;;;4.30;;
18251;SDS011;26917;52.328;20.878;2022-07-29T02:59:13;5.80;;;3.45;;
18251;SDS011;26917;52.328;20.878;2022-07-29T03:01:46;10.88;;;4.65;;
18251;SDS011;26917;52.328;20.878;2022-07-29T03:04:15;8.63;;;5.28;;
18251;SDS011;26917;52.328;20.878;2022-07-29T03:06:47;8.70;;;4.45;;
18251;SDS011;26917;52.328;20.878;2022-07-29T03:09:18;6.55;;;4.07;;
18251;SDS011;26917;52.328;20.878;2022-07-29T03:11:48;7.28;;;4.72;;
18251;SDS011;26917;52.328;20.878;2022-07-29T03:14:17;10.02;;;5.22;;
18251;SDS011;26917;52.328;20.878;2022-07-29T03:16:49;8.93;;;4.93;;
18251;SDS011;26917;52.328;20.878;2022-07-29T03:19:18;7.40;;;5.85;;
18251;SDS011;26917;52.328;20.878;2022-07-29T03:21:48;8.90;;;5.07;;
18251;SDS011;26917;52.328;20.878;2022-07-29T03:24:26;9.23;;;5.50;;
18251;SDS011;26917;52.328;20.878;2022-07-29T03:26:56;7.47;;;4.57;;
18251;SDS011;26917;52.328;20.878;2022-07-29T03:29:25;9.60;;;5.40;;
18251;SDS011;26917;52.328;20.878;2022-07-29T03:32:01;9.38;;;4.97;;
18251;SDS011;26917;52.328;20.878;2022-07-29T03:34:33;9.88;;;5.45;;
18251;SDS011;26917;52.328;20.878;2022-07-29T03:37:02;8.10;;;5.20;;
18251;SDS011;26917;52.328;20.878;2022-07-29T03:39:33;8.68;;;5.25;;
18251;SDS011;26917;52.328;20.878;2022-07-29T03:42:05;5.72;;;4.45;;
18251;SDS011;26917;52.328;20.878;2022-07-29T03:44:36;5.95;;;4.35;;
18251;SDS011;26917;52.328;20.878;2022-07-29T03:47:07;9.60;;;5.57;;
18251;SDS011;26917;52.328;20.878;2022-07-29T03:49:38;6.78;;;4.65;;
18251;SDS011;26917;52.328;20.878;2022-07-29T03:52:07;9.50;;;4.55;;
18251;SDS011;26917;52.328;20.878;2022-07-29T03:54:36;10.07;;;4.20;;
18251;SDS011;26917;52.328;20.878;2022-07-29T03:57:05;6.63;;;4.32;;
18251;SDS011;26917;52.328;20.878;2022-07-29T03:59:34;10.18;;;4.50;;
18251;SDS011;26917;52.328;20.878;2022-07-29T04:02:04;6.13;;;5.47;;
18251;SDS011;26917;52.328;20.878;2022-07-29T04:04:37;6.55;;;4.38;;
18251;SDS011;26917;52.328;20.878;2022-07-29T04:07:05;7.68;;;5.47;;
18251;SDS011;26917;52.328;20.878;2022-07-29T04:09:34;5.53;;;4.20;;
18251;SDS011;26917;52.328;20.878;2022-07-29T04:12:02;6.30;;;4.25;;
18251;SDS011;26917;52.328;20.878;2022-07-29T04:14:32;8.95;;;5.55;;
18251;SDS011;26917;52.328;20.878;2022-07-29T04:17:02;12.25;;;4.75;;
18251;SDS011;26917;52.328;20.878;2022-07-29T04:19:31;6.55;;;4.57;;
18251;SDS011;26917;52.328;20.878;2022-07-29T04:22:01;5.43;;;4.45;;
18251;SDS011;26917;52.328;20.878;2022-07-29T04:24:30;6.47;;;4.78;;
18251;SDS011;26917;52.328;20.878;2022-07-29T04:26:58;6.65;;;5.32;;
18251;SDS011;26917;52.328;20.878;2022-07-29T04:29:26;7.15;;;4.57;;
18251;SDS011;26917;52.328;20.878;2022-07-29T04:31:55;8.63;;;4.80;;
18251;SDS011;26917;52.328;20.878;2022-07-29T04:34:23;8.18;;;4.65;;
18251;SDS011;26917;52.328;20.878;2022-07-29T04:36:53;6.82;;;4.82;;
18251;SDS011;26917;52.328;20.878;2022-07-29T04:39:23;6.03;;;4.43;;
18251;SDS011;26917;52.328;20.878;2022-07-29T04:41:55;4.70;;;4.10;;
18251;SDS011;26917;52.328;20.878;2022-07-29T04:44:24;5.38;;;3.78;;
18251;SDS011;26917;52.328;20.878;2022-07-29T04:46:54;9.38;;;5.38;;
18251;SDS011;26917;52.328;20.878;2022-07-29T04:49:24;7.00;;;4.45;;
18251;SDS011;26917;52.328;20.878;2022-07-29T04:51:53;6.90;;;4.03;;
18251;SDS011;26917;52.328;20.878;2022-07-29T04:54:21;8.27;;;4.60;;
18251;SDS011;26917;52.328;20.878;2022-07-29T04:56:52;4.35;;;3.95;;
18251;SDS011;26917;52.328;20.878;2022-07-29T04:59:20;7.97;;;4.28;;
18251;SDS011;26917;52.328;20.878;2022-07-29T05:01:49;5.40;;;4.30;;
18251;SDS011;26917;52.328;20.878;2022-07-29T05:04:17;4.45;;;3.85;;
18251;SDS011;26917;52.328;20.878;2022-07-29T05:06:46;4.32;;;3.92;;
18251;SDS011;26917;52.328;20.878;2022-07-29T05:09:14;6.00;;;4.53;;
18251;SDS011;26917;52.328;20.878;2022-07-29T05:11:43;5.25;;;4.10;;
18251;SDS011;26917;52.328;20.878;2022-07-29T05:14:12;8.60;;;3.42;;
18251;SDS011;26917;52.328;20.878;2022-07-29T05:16:41;5.25;;;3.10;;
18251;SDS011;26917;52.328;20.878;2022-07-29T05:19:10;7.88;;;3.47;;
18251;SDS011;26917;52.328;20.878;2022-07-29T05:21:40;4.72;;;3.78;;
18251;SDS011;26917;52.328;20.878;2022-07-29T05:24:08;3.05;;;2.78;;
18251;SDS011;26917;52.328;20.878;2022-07-29T05:26:37;4.25;;;2.83;;
18251;SDS011;26917;52.328;20.878;2022-07-29T05:29:05;8.30;;;2.67;;
18251;SDS011;26917;52.328;20.878;2022-07-29T05:31:55;5.47;;;2.92;;
18251;SDS011;26917;52.328;20.878;2022-07-29T05:34:23;6.47;;;2.90;;
18251;SDS011;26917;52.328;20.878;2022-07-29T05:36:53;2.72;;;2.53;;
18251;SDS011;26917;52.328;20.878;2022-07-29T05:39:22;12.25;;;2.58;;
18251;SDS011;26917;52.328;20.878;2022-07-29T05:42:10;3.75;;;3.15;;
18251;SDS011;26917;52.328;20.878;2022-07-29T05:44:39;4.60;;;2.78;;
18251;SDS011;26917;52.328;20.878;2022-07-29T05:47:09;2.60;;;2.40;;
18251;SDS011;26917;52.328;20.878;2022-07-29T05:49:37;3.08;;;2.78;;
18251;SDS011;26917;52.328;20.878;2022-07-29T05:52:06;3.85;;;3.55;;
18251;SDS011;26917;52.328;20.878;2022-07-29T05:54:35;4.45;;;3.70;;
18251;SDS011;26917;52.328;20.878;2022-07-29T05:57:03;6.22;;;2.72;;
18251;SDS011;26917;52.328;20.878;2022-07-29T05:59:34;4.80;;;2.65;;
18251;SDS011;26917;52.328;20.878;2022-07-29T06:02:03;3.20;;;2.55;;
18251;SDS011;26917;52.328;20.878;2022-07-29T06:04:33;2.78;;;2.33;;
18251;SDS011;26917;52.328;20.878;2022-07-29T06:07:03;3.08;;;2.63;;
18251;SDS011;26917;52.328;20.878;2022-07-29T06:09:32;3.13;;;2.80;;
18251;SDS011;26917;52.328;20.878;2022-07-29T06:12:02;6.05;;;2.20;;
18251;SDS011;26917;52.328;20.878;2022-07-29T06:14:31;4.38;;;3.22;;
18251;SDS011;26917;52.328;20.878;2022-07-29T06:16:59;5.93;;;2.80;;
18251;SDS011;26917;52.328;20.878;2022-07-29T06:19:27;8.45;;;2.72;;
18251;SDS011;26917;52.328;20.878;2022-07-29T06:21:57;5.65;;;2.22;;
18251;SDS011;26917;52.328;20.878;2022-07-29T06:24:26;5.13;;;2.88;;
18251;SDS011;26917;52.328;20.878;2022-07-29T06:26:54;4.20;;;2.88;;
18251;SDS011;26917;52.328;20.878;2022-07-29T06:29:22;8.18;;;2.80;;
18251;SDS011;26917;52.328;20.878;2022-07-29T06:31:51;3.78;;;2.17;;
18251;SDS011;26917;52.328;20.878;2022-07-29T06:34:19;4.85;;;2.35;;
18251;SDS011;26917;52.328;20.878;2022-07-29T06:36:49;4.78;;;2.33;;
18251;SDS011;26917;52.328;20.878;2022-07-29T06:39:21;4.55;;;2.13;;
18251;SDS011;26917;52.328;20.878;2022-07-29T06:41:49;4.25;;;2.47;;
18251;SDS011;26917;52.328;20.878;2022-07-29T06:44:23;3.45;;;2.03;;
18251;SDS011;26917;52.328;20.878;2022-07-29T06:46:51;3.15;;;2.95;;
18251;SDS011;26917;52.328;20.878;2022-07-29T06:49:21;2.45;;;2.20;;
18251;SDS011;26917;52.328;20.878;2022-07-29T06:51:52;2.70;;;2.33;;
18251;SDS011;26917;52.328;20.878;2022-07-29T06:54:22;4.55;;;2.30;;
18251;SDS011;26917;52.328;20.878;2022-07-29T06:56:50;2.70;;;2.40;;
18251;SDS011;26917;52.328;20.878;2022-07-29T06:59:19;4.53;;;2.22;;
18251;SDS011;26917;52.328;20.878;2022-07-29T07:01:58;3.97;;;2.40;;
18251;SDS011;26917;52.328;20.878;2022-07-29T07:04:27;3.22;;;1.73;;
18251;SDS011;26917;52.328;20.878;2022-07-29T07:06:55;3.00;;;2.47;;
18251;SDS011;26917;52.328;20.878;2022-07-29T07:09:27;2.25;;;1.85;;
18251;SDS011;26917;52.328;20.878;2022-07-29T07:12:06;1.70;;;1.60;;
18251;SDS011;26917;52.328;20.878;2022-07-29T07:14:34;3.78;;;2.30;;
18251;SDS011;26917;52.328;20.878;2022-07-29T07:17:03;3.10;;;1.92;;
18251;SDS011;26917;52.328;20.878;2022-07-29T07:19:33;2.47;;;2.13;;
18251;SDS011;26917;52.328;20.878;2022-07-29T07:22:01;2.50;;;2.03;;
18251;SDS011;26917;52.328;20.878;2022-07-29T07:24:33;1.80;;;1.70;;
18251;SDS011;26917;52.328;20.878;2022-07-29T07:27:01;2.75;;;2.22;;
18251;SDS011;26917;52.328;20.878;2022-07-29T07:29:30;2.40;;;2.17;;
18251;SDS011;26917;52.328;20.878;2022-07-29T07:31:59;3.90;;;2.08;;
18251;SDS011;26917;52.328;20.878;2022-07-29T07:34:27;9.27;;;4.40;;
18251;SDS011;26917;52.328;20.878;2022-07-29T07:36:57;5.70;;;2.47;;
18251;SDS011;26917;52.328;20.878;2022-07-29T07:39:27;3.47;;;1.88;;
18251;SDS011;26917;52.328;20.878;2022-07-29T07:41:56;10.57;;;2.10;;
18251;SDS011;26917;52.328;20.878;2022-07-29T07:44:25;4.13;;;2.10;;
18251;SDS011;26917;52.328;20.878;2022-07-29T07:46:54;7.18;;;2.10;;
18251;SDS011;26917;52.328;20.878;2022-07-29T07:49:29;3.05;;;2.60;;
18251;SDS011;26917;52.328;20.878;2022-07-29T07:51:57;3.08;;;2.08;;
18251;SDS011;26917;52.328;20.878;2022-07-29T07:54:26;1.70;;;1.60;;
18251;SDS011;26917;52.328;20.878;2022-07-29T07:56:54;2.63;;;2.10;;
18251;SDS011;26917;52.328;20.878;2022-07-29T07:59:24;3.47;;;2.28;;
18251;SDS011;26917;52.328;20.878;2022-07-29T08:01:53;2.78;;;2.58;;
18251;SDS011;26917;52.328;20.878;2022-07-29T08:04:22;6.88;;;3.00;;
18251;SDS011;26917;52.328;20.878;2022-07-29T08:06:54;2.60;;;2.40;;
18251;SDS011;26917;52.328;20.878;2022-07-29T08:09:23;3.47;;;2.17;;
18251;SDS011;26917;52.328;20.878;2022-07-29T08:11:56;4.03;;;2.17;;
18251;SDS011;26917;52.328;20.878;2022-07-29T08:14:25;2.20;;;2.00;;
18251;SDS011;26917;52.328;20.878;2022-07-29T08:16:53;3.38;;;3.08;;
18251;SDS011;26917;52.328;20.878;2022-07-29T08:19:22;4.97;;;2.10;;
18251;SDS011;26917;52.328;20.878;2022-07-29T08:21:50;3.60;;;2.05;;
18251;SDS011;26917;52.328;20.878;2022-07-29T08:24:20;4.15;;;2.35;;
18251;SDS011;26917;52.328;20.878;2022-07-29T08:27:08;4.53;;;2.03;;
18251;SDS011;26917;52.328;20.878;2022-07-29T08:29:56;4.65;;;2.20;;
18251;SDS011;26917;52.328;20.878;2022-07-29T08:32:25;4.57;;;2.78;;
18251;SDS011;26917;52.328;20.878;2022-07-29T08:35:14;3.10;;;2.25;;
18251;SDS011;26917;52.328;20.878;2022-07-29T08:37:43;2.72;;;1.83;;
18251;SDS011;26917;52.328;20.878;2022-07-29T08:40:12;3.88;;;2.25;;
18251;SDS011;26917;52.328;20.878;2022-07-29T08:42:43;2.35;;;2.15;;
18251;SDS011;26917;52.328;20.878;2022-07-29T08:45:11;2.53;;;2.28;;
18251;SDS011;26917;52.328;20.878;2022-07-29T08:47:39;2.30;;;1.90;;
18251;SDS011;26917;52.328;20.878;2022-07-29T08:50:08;3.17;;;2.88;;
18251;SDS011;26917;52.328;20.878;2022-07-29T08:52:40;3.00;;;2.67;;
18251;SDS011;26917;52.328;20.878;2022-07-29T08:55:09;3.17;;;2.95;;
18251;SDS011;26917;52.328;20.878;2022-07-29T08:57:42;2.90;;;2.55;;
18251;SDS011;26917;52.328;20.878;2022-07-29T09:00:22;4.57;;;2.80;;
18251;SDS011;26917;52.328;20.878;2022-07-29T09:02:55;3.40;;;2.40;;
18251;SDS011;26917;52.328;20.878;2022-07-29T09:05:25;2.92;;;2.50;;
18251;SDS011;26917;52.328;20.878;2022-07-29T09:07:54;4.15;;;3.85;;
18251;SDS011;26917;52.328;20.878;2022-07-29T09:10:23;2.90;;;2.53;;
18251;SDS011;26917;52.328;20.878;2022-07-29T09:12:53;2.22;;;2.13;;
18251;SDS011;26917;52.328;20.878;2022-07-29T09:15:22;3.65;;;3.00;;
18251;SDS011;26917;52.328;20.878;2022-07-29T09:17:51;3.95;;;3.25;;
18251;SDS011;26917;52.328;20.878;2022-07-29T09:20:20;3.30;;;3.00;;
18251;SDS011;26917;52.328;20.878;2022-07-29T09:22:49;3.70;;;3.38;;
18251;SDS011;26917;52.328;20.878;2022-07-29T09:25:32;5.82;;;2.92;;
18251;SDS011;26917;52.328;20.878;2022-07-29T09:28:09;5.82;;;3.70;;
18251;SDS011;26917;52.328;20.878;2022-07-29T09:30:43;4.53;;;3.97;;
18251;SDS011;26917;52.328;20.878;2022-07-29T09:33:18;6.90;;;6.43;;
18251;SDS011;26917;52.328;20.878;2022-07-29T09:35:58;9.98;;;4.97;;
18251;SDS011;26917;52.328;20.878;2022-07-29T09:38:29;8.15;;;5.75;;
18251;SDS011;26917;52.328;20.878;2022-07-29T09:40:58;7.03;;;5.82;;
18251;SDS011;26917;52.328;20.878;2022-07-29T09:43:32;6.03;;;5.60;;
18251;SDS011;26917;52.328;20.878;2022-07-29T09:46:11;5.60;;;5.00;;
18251;SDS011;26917;52.328;20.878;2022-07-29T09:48:39;6.45;;;5.80;;
18251;SDS011;26917;52.328;20.878;2022-07-29T09:51:16;7.15;;;5.82;;
18251;SDS011;26917;52.328;20.878;2022-07-29T09:53:50;6.55;;;6.15;;
18251;SDS011;26917;52.328;20.878;2022-07-29T09:56:19;5.85;;;5.45;;
18251;SDS011;26917;52.328;20.878;2022-07-29T09:58:48;13.35;;;4.03;;
18251;SDS011;26917;52.328;20.878;2022-07-29T10:01:33;5.75;;;5.30;;
18251;SDS011;26917;52.328;20.878;2022-07-29T10:04:02;5.82;;;4.88;;
18251;SDS011;26917;52.328;20.878;2022-07-29T10:06:31;8.85;;;4.40;;
18251;SDS011;26917;52.328;20.878;2022-07-29T10:09:06;4.65;;;3.67;;
18251;SDS011;26917;52.328;20.878;2022-07-29T10:11:36;7.97;;;4.30;;
18251;SDS011;26917;52.328;20.878;2022-07-29T10:14:16;3.80;;;3.50;;
18251;SDS011;26917;52.328;20.878;2022-07-29T10:16:45;5.28;;;4.88;;
18251;SDS011;26917;52.328;20.878;2022-07-29T10:19:14;5.65;;;5.25;;
18251;SDS011;26917;52.328;20.878;2022-07-29T10:21:42;6.03;;;5.45;;
18251;SDS011;26917;52.328;20.878;2022-07-29T10:24:11;6.32;;;5.90;;
18251;SDS011;26917;52.328;20.878;2022-07-29T10:26:40;6.68;;;6.10;;
18251;SDS011;26917;52.328;20.878;2022-07-29T10:29:10;5.43;;;5.07;;
18251;SDS011;26917;52.328;20.878;2022-07-29T10:31:43;4.68;;;4.32;;
18251;SDS011;26917;52.328;20.878;2022-07-29T10:34:19;6.20;;;5.80;;
18251;SDS011;26917;52.328;20.878;2022-07-29T10:37:00;6.28;;;5.82;;
18251;SDS011;26917;52.328;20.878;2022-07-29T10:39:40;5.68;;;5.10;;
18251;SDS011;26917;52.328;20.878;2022-07-29T10:42:22;6.90;;;5.95;;
18251;SDS011;26917;52.328;20.878;2022-07-29T10:44:59;5.90;;;5.50;;
18251;SDS011;26917;52.328;20.878;2022-07-29T10:50:16;6.47;;;5.88;;
18251;SDS011;26917;52.328;20.878;2022-07-29T10:52:54;7.35;;;6.85;;
18251;SDS011;26917;52.328;20.878;2022-07-29T10:55:31;6.88;;;6.35;;
18251;SDS011;26917;52.328;20.878;2022-07-29T10:58:11;7.00;;;5.82;;
18251;SDS011;26917;52.328;20.878;2022-07-29T11:00:45;7.28;;;6.45;;
18251;SDS011;26917;52.328;20.878;2022-07-29T11:06:19;7.88;;;7.28;;
18251;SDS011;26917;52.328;20.878;2022-07-29T11:12:03;7.03;;;6.63;;
18251;SDS011;26917;52.328;20.878;2022-07-29T11:14:56;6.47;;;5.95;;
18251;SDS011;26917;52.328;20.878;2022-07-29T11:17:27;6.95;;;6.30;;
18251;SDS011;26917;52.328;20.878;2022-07-29T11:20:34;7.10;;;6.47;;
18251;SDS011;26917;52.328;20.878;2022-07-29T11:23:17;8.65;;;6.15;;
18251;SDS011;26917;52.328;20.878;2022-07-29T11:26:12;10.02;;;6.38;;
18251;SDS011;26917;52.328;20.878;2022-07-29T11:28:48;7.07;;;6.57;;
18251;SDS011;26917;52.328;20.878;2022-07-29T11:31:32;7.47;;;6.93;;
18251;SDS011;26917;52.328;20.878;2022-07-29T11:37:22;7.88;;;7.38;;
18251;SDS011;26917;52.328;20.878;2022-07-29T11:40:10;7.10;;;6.38;;
18251;SDS011;26917;52.328;20.878;2022-07-29T11:42:45;6.97;;;6.35;;
18251;SDS011;26917;52.328;20.878;2022-07-29T11:45:24;8.23;;;7.65;;
18251;SDS011;26917;52.328;20.878;2022-07-29T11:48:18;5.28;;;4.88;;
18251;SDS011;26917;52.328;20.878;2022-07-29T11:50:58;8.07;;;7.53;;
18251;SDS011;26917;52.328;20.878;2022-07-29T11:53:29;8.60;;;7.88;;
18251;SDS011;26917;52.328;20.878;2022-07-29T11:55:59;7.43;;;6.65;;
18251;SDS011;26917;52.328;20.878;2022-07-29T11:58:29;6.45;;;5.85;;
18251;SDS011;26917;52.328;20.878;2022-07-29T12:00:58;7.50;;;6.60;;
18251;SDS011;26917;52.328;20.878;2022-07-29T12:03:47;8.75;;;8.02;;
18251;SDS011;26917;52.328;20.878;2022-07-29T12:06:32;7.60;;;7.00;;
18251;SDS011;26917;52.328;20.878;2022-07-29T12:09:06;7.78;;;7.15;;
18251;SDS011;26917;52.328;20.878;2022-07-29T12:11:40;8.00;;;7.18;;
18251;SDS011;26917;52.328;20.878;2022-07-29T12:14:25;6.25;;;5.82;;
18251;SDS011;26917;52.328;20.878;2022-07-29T12:16:55;5.90;;;5.50;;
18251;SDS011;26917;52.328;20.878;2022-07-29T12:19:24;8.05;;;7.28;;
18251;SDS011;26917;52.328;20.878;2022-07-29T12:21:53;7.45;;;6.90;;
18251;SDS011;26917;52.328;20.878;2022-07-29T12:24:26;7.15;;;6.72;;
18251;SDS011;26917;52.328;20.878;2022-07-29T12:27:11;8.07;;;7.57;;
18251;SDS011;26917;52.328;20.878;2022-07-29T12:29:55;8.13;;;7.53;;
18251;SDS011;26917;52.328;20.878;2022-07-29T12:32:24;8.40;;;7.32;;
18251;SDS011;26917;52.328;20.878;2022-07-29T12:34:59;7.03;;;6.22;;
18251;SDS011;26917;52.328;20.878;2022-07-29T12:37:32;5.68;;;5.22;;
18251;SDS011;26917;52.328;20.878;2022-07-29T12:40:10;8.40;;;7.70;;
18251;SDS011;26917;52.328;20.878;2022-07-29T12:42:39;8.57;;;7.90;;
18251;SDS011;26917;52.328;20.878;2022-07-29T12:45:08;8.98;;;7.38;;
18251;SDS011;26917;52.328;20.878;2022-07-29T12:47:50;7.35;;;6.70;;
18251;SDS011;26917;52.328;20.878;2022-07-29T12:50:20;7.35;;;6.75;;
18251;SDS011;26917;52.328;20.878;2022-07-29T12:52:51;6.60;;;6.10;;
18251;SDS011;26917;52.328;20.878;2022-07-29T12:58:08;6.32;;;5.78;;
18251;SDS011;26917;52.328;20.878;2022-07-29T13:00:37;6.63;;;6.18;;
18251;SDS011;26917;52.328;20.878;2022-07-29T13:03:06;6.63;;;6.22;;
18251;SDS011;26917;52.328;20.878;2022-07-29T13:05:39;6.05;;;5.65;;
18251;SDS011;26917;52.328;20.878;2022-07-29T13:08:15;6.47;;;5.97;;
18251;SDS011;26917;52.328;20.878;2022-07-29T13:13:32;6.47;;;5.90;;
18251;SDS011;26917;52.328;20.878;2022-07-29T13:16:05;6.90;;;6.40;;
18251;SDS011;26917;52.328;20.878;2022-07-29T13:18:35;8.85;;;8.15;;
18251;SDS011;26917;52.328;20.878;2022-07-29T13:21:10;6.45;;;6.05;;
18251;SDS011;26917;52.328;20.878;2022-07-29T13:23:39;6.85;;;6.35;;
18251;SDS011;26917;52.328;20.878;2022-07-29T13:26:10;6.38;;;5.82;;
18251;SDS011;26917;52.328;20.878;2022-07-29T13:28:38;5.15;;;4.63;;
18251;SDS011;26917;52.328;20.878;2022-07-29T13:31:09;7.13;;;6.53;;
18251;SDS011;26917;52.328;20.878;2022-07-29T13:33:38;7.03;;;6.63;;
18251;SDS011;26917;52.328;20.878;2022-07-29T13:36:07;5.30;;;5.00;;
18251;SDS011;26917;52.328;20.878;2022-07-29T13:38:35;7.80;;;7.25;;
18251;SDS011;26917;52.328;20.878;2022-07-29T13:41:04;7.78;;;7.28;;
18251;SDS011;26917;52.328;20.878;2022-07-29T13:43:34;6.88;;;6.35;;
18251;SDS011;26917;52.328;20.878;2022-07-29T13:46:02;7.68;;;7.05;;
18251;SDS011;26917;52.328;20.878;2022-07-29T13:48:31;7.78;;;6.85;;
18251;SDS011;26917;52.328;20.878;2022-07-29T13:50:59;8.27;;;7.57;;
18251;SDS011;26917;52.328;20.878;2022-07-29T13:53:28;9.15;;;8.63;;
18251;SDS011;26917;52.328;20.878;2022-07-29T13:55:56;9.57;;;8.63;;
18251;SDS011;26917;52.328;20.878;2022-07-29T13:58:25;7.80;;;7.30;;
18251;SDS011;26917;52.328;20.878;2022-07-29T14:00:56;7.60;;;7.00;;
18251;SDS011;26917;52.328;20.878;2022-07-29T14:03:25;8.00;;;7.50;;
18251;SDS011;26917;52.328;20.878;2022-07-29T14:05:54;6.25;;;5.85;;
18251;SDS011;26917;52.328;20.878;2022-07-29T14:08:26;7.50;;;6.95;;
18251;SDS011;26917;52.328;20.878;2022-07-29T14:10:55;8.93;;;8.13;;
18251;SDS011;26917;52.328;20.878;2022-07-29T14:13:23;7.72;;;6.90;;
18251;SDS011;26917;52.328;20.878;2022-07-29T14:15:51;8.35;;;6.32;;
18251;SDS011;26917;52.328;20.878;2022-07-29T14:18:22;6.70;;;6.20;;
18251;SDS011;26917;52.328;20.878;2022-07-29T14:20:50;7.82;;;5.15;;
18251;SDS011;26917;52.328;20.878;2022-07-29T14:23:19;7.85;;;7.38;;
18251;SDS011;26917;52.328;20.878;2022-07-29T14:25:48;7.20;;;6.80;;
18251;SDS011;26917;52.328;20.878;2022-07-29T14:28:18;5.93;;;5.57;;
18251;SDS011;26917;52.328;20.878;2022-07-29T14:30:47;7.20;;;6.13;;
18251;SDS011;26917;52.328;20.878;2022-07-29T14:33:15;7.47;;;6.82;;
18251;SDS011;26917;52.328;20.878;2022-07-29T14:35:45;7.47;;;6.97;;
18251;SDS011;26917;52.328;20.878;2022-07-29T14:38:14;5.63;;;5.32;;
18251;SDS011;26917;52.328;20.878;2022-07-29T14:40:42;6.85;;;6.25;;
18251;SDS011;26917;52.328;20.878;2022-07-29T14:43:16;6.35;;;5.53;;
18251;SDS011;26917;52.328;20.878;2022-07-29T14:45:47;6.15;;;5.43;;
18251;SDS011;26917;52.328;20.878;2022-07-29T14:48:15;7.78;;;7.28;;
18251;SDS011;26917;52.328;20.878;2022-07-29T14:50:45;7.72;;;7.30;;
18251;SDS011;26917;52.328;20.878;2022-07-29T14:53:14;7.57;;;7.07;;
18251;SDS011;26917;52.328;20.878;2022-07-29T14:55:42;6.28;;;5.78;;
18251;SDS011;26917;52.328;20.878;2022-07-29T14:58:13;7.13;;;6.68;;
18251;SDS011;26917;52.328;20.878;2022-07-29T15:00:42;7.15;;;6.55;;
18251;SDS011;26917;52.328;20.878;2022-07-29T15:03:10;5.47;;;5.15;;
18251;SDS011;26917;52.328;20.878;2022-07-29T15:05:51;5.53;;;5.20;;
18251;SDS011;26917;52.328;20.878;2022-07-29T15:08:19;6.20;;;5.80;;
18251;SDS011;26917;52.328;20.878;2022-07-29T15:10:48;7.43;;;6.90;;
18251;SDS011;26917;52.328;20.878;2022-07-29T15:13:16;5.90;;;5.57;;
18251;SDS011;26917;52.328;20.878;2022-07-29T15:15:45;6.72;;;6.22;;
18251;SDS011;26917;52.328;20.878;2022-07-29T15:18:13;5.10;;;4.65;;
18251;SDS011;26917;52.328;20.878;2022-07-29T15:20:52;5.47;;;4.97;;
18251;SDS011;26917;52.328;20.878;2022-07-29T15:23:20;5.93;;;5.53;;